sensor_id;sensor_type;location;lat;lon;timestamp;P1;durP1;ratioP1;P2;durP2;ratioP2
10244;SDS011;5167;52.164;10.530;2023-06-14T00:01:43;3.97;;;1.80;;
10244;SDS011;5167;52.164;10.530;2023-06-14T00:04:10;2.97;;;2.20;;
10244;SDS011;5167;52.164;10.530;2023-06-14T00:06:36;1.90;;;1.80;;
10244;SDS011;5167;52.164;10.530;2023-06-14T00:09:03;2.30;;;1.73;;
10244;SDS011;5167;52.164;10.530;2023-06-14T00:11:30;3.92;;;1.60;;
10244;SDS011;5167;52.164;10.530;2023-06-14T00:13:56;2.25;;;1.67;;
10244;SDS011;5167;52.164;10.530;2023-06-14T00:16:22;2.67;;;1.70;;
10244;SDS011;5167;52.164;10.530;2023-06-14T00:18:48;3.20;;;2.17;;
10244;SDS011;5167;52.164;10.530;2023-06-14T00:21:13;2.08;;;1.50;;
10244;SDS011;5167;52.164;10.530;2023-06-14T00:23:39;6.25;;;2.17;;
10244;SDS011;5167;52.164;10.530;2023-06-14T00:26:05;4.53;;;1.80;;
10244;SDS011;5167;52.164;10.530;2023-06-14T00:28:30;3.03;;;2.10;;
10244;SDS011;5167;52.164;10.530;2023-06-14T00:30:56;4.60;;;1.80;;
10244;SDS011;5167;52.164;10.530;2023-06-14T00:33:21;2.25;;;2.00;;
10244;SDS011;5167;52.164;10.530;2023-06-14T00:35:47;3.33;;;1.60;;
10244;SDS011;5167;52.164;10.530;2023-06-14T00:38:13;1.83;;;1.73;;
10244;SDS011;5167;52.164;10.530;2023-06-14T00:40:38;2.40;;;1.70;;
10244;SDS011;5167;52.164;10.530;2023-06-14T00:43:04;2.67;;;1.70;;
10244;SDS011;5167;52.164;10.530;2023-06-14T00:45:30;2.58;;;1.75;;
10244;SDS011;5167;52.164;10.530;2023-06-14T00:48:00;4.25;;;1.70;;
10244;SDS011;5167;52.164;10.530;2023-06-14T00:50:27;1.88;;;1.55;;
10244;SDS011;5167;52.164;10.530;2023-06-14T00:52:54;2.20;;;1.70;;
10244;SDS011;5167;52.164;10.530;2023-06-14T00:55:21;2.42;;;1.70;;
10244;SDS011;5167;52.164;10.530;2023-06-14T00:57:46;3.50;;;1.92;;
10244;SDS011;5167;52.164;10.530;2023-06-14T01:00:13;1.60;;;1.50;;
10244;SDS011;5167;52.164;10.530;2023-06-14T01:02:39;2.63;;;1.90;;
10244;SDS011;5167;52.164;10.530;2023-06-14T01:05:05;3.00;;;1.70;;
10244;SDS011;5167;52.164;10.530;2023-06-14T01:16:08;3.85;;;1.98;;
10244;SDS011;5167;52.164;10.530;2023-06-14T01:18:34;1.85;;;1.67;;
10244;SDS011;5167;52.164;10.530;2023-06-14T01:21:01;2.90;;;1.58;;
10244;SDS011;5167;52.164;10.530;2023-06-14T01:23:30;1.58;;;1.48;;
10244;SDS011;5167;52.164;10.530;2023-06-14T01:25:57;3.55;;;1.80;;
10244;SDS011;5167;52.164;10.530;2023-06-14T01:28:23;1.23;;;1.13;;
10244;SDS011;5167;52.164;10.530;2023-06-14T01:30:50;3.28;;;1.70;;
10244;SDS011;5167;52.164;10.530;2023-06-14T01:33:19;7.57;;;2.42;;
10244;SDS011;5167;52.164;10.530;2023-06-14T01:35:51;3.20;;;1.60;;
10244;SDS011;5167;52.164;10.530;2023-06-14T01:38:19;3.03;;;1.50;;
10244;SDS011;5167;52.164;10.530;2023-06-14T01:40:47;1.92;;;1.50;;
10244;SDS011;5167;52.164;10.530;2023-06-14T01:43:14;1.83;;;1.38;;
10244;SDS011;5167;52.164;10.530;2023-06-14T01:45:41;1.85;;;1.60;;
10244;SDS011;5167;52.164;10.530;2023-06-14T01:48:09;2.50;;;1.58;;
10244;SDS011;5167;52.164;10.530;2023-06-14T01:50:35;2.03;;;1.45;;
10244;SDS011;5167;52.164;10.530;2023-06-14T01:53:00;1.42;;;1.33;;
10244;SDS011;5167;52.164;10.530;2023-06-14T01:55:26;1.85;;;1.45;;
10244;SDS011;5167;52.164;10.530;2023-06-14T01:57:52;1.63;;;1.52;;
10244;SDS011;5167;52.164;10.530;2023-06-14T02:00:18;3.85;;;1.60;;
10244;SDS011;5167;52.164;10.530;2023-06-14T02:02:44;3.05;;;1.90;;
10244;SDS011;5167;52.164;10.530;2023-06-14T02:05:14;2.28;;;1.50;;
10244;SDS011;5167;52.164;10.530;2023-06-14T02:07:43;2.22;;;1.50;;
10244;SDS011;5167;52.164;10.530;2023-06-14T02:10:09;3.35;;;1.80;;
10244;SDS011;5167;52.164;10.530;2023-06-14T02:12:35;1.77;;;1.50;;
10244;SDS011;5167;52.164;10.530;2023-06-14T02:15:00;1.83;;;1.73;;
10244;SDS011;5167;52.164;10.530;2023-06-14T02:17:26;3.13;;;2.17;;
10244;SDS011;5167;52.164;10.530;2023-06-14T02:19:51;3.10;;;1.50;;
10244;SDS011;5167;52.164;10.530;2023-06-14T02:22:17;1.50;;;1.40;;
10244;SDS011;5167;52.164;10.530;2023-06-14T02:24:43;2.45;;;1.38;;
10244;SDS011;5167;52.164;10.530;2023-06-14T02:27:08;1.65;;;1.55;;
10244;SDS011;5167;52.164;10.530;2023-06-14T02:29:37;2.55;;;1.60;;
10244;SDS011;5167;52.164;10.530;2023-06-14T02:32:03;2.72;;;1.60;;
10244;SDS011;5167;52.164;10.530;2023-06-14T02:34:32;1.75;;;1.60;;
10244;SDS011;5167;52.164;10.530;2023-06-14T02:36:58;3.85;;;1.80;;
10244;SDS011;5167;52.164;10.530;2023-06-14T02:39:24;2.70;;;1.75;;
10244;SDS011;5167;52.164;10.530;2023-06-14T02:41:50;1.63;;;1.52;;
10244;SDS011;5167;52.164;10.530;2023-06-14T02:44:17;1.70;;;1.60;;
10244;SDS011;5167;52.164;10.530;2023-06-14T02:46:44;1.52;;;1.42;;
10244;SDS011;5167;52.164;10.530;2023-06-14T02:49:10;2.10;;;1.65;;
10244;SDS011;5167;52.164;10.530;2023-06-14T02:51:36;1.73;;;1.50;;
10244;SDS011;5167;52.164;10.530;2023-06-14T02:54:02;4.30;;;1.70;;
10244;SDS011;5167;52.164;10.530;2023-06-14T02:56:28;1.85;;;1.60;;
10244;SDS011;5167;52.164;10.530;2023-06-14T02:58:54;2.03;;;1.80;;
10244;SDS011;5167;52.164;10.530;2023-06-14T03:01:20;1.80;;;1.70;;
10244;SDS011;5167;52.164;10.530;2023-06-14T03:03:46;1.45;;;1.35;;
10244;SDS011;5167;52.164;10.530;2023-06-14T03:06:12;3.58;;;2.22;;
10244;SDS011;5167;52.164;10.530;2023-06-14T03:08:38;2.38;;;1.75;;
10244;SDS011;5167;52.164;10.530;2023-06-14T03:11:06;4.20;;;1.63;;
10244;SDS011;5167;52.164;10.530;2023-06-14T03:13:32;3.92;;;1.70;;
10244;SDS011;5167;52.164;10.530;2023-06-14T03:15:59;2.92;;;1.85;;
10244;SDS011;5167;52.164;10.530;2023-06-14T03:18:27;3.00;;;1.70;;
10244;SDS011;5167;52.164;10.530;2023-06-14T03:21:00;5.60;;;1.92;;
10244;SDS011;5167;52.164;10.530;2023-06-14T03:23:28;2.22;;;1.98;;
10244;SDS011;5167;52.164;10.530;2023-06-14T03:25:54;2.42;;;1.90;;
10244;SDS011;5167;52.164;10.530;2023-06-14T03:28:21;3.78;;;1.83;;
10244;SDS011;5167;52.164;10.530;2023-06-14T03:30:46;3.05;;;1.60;;
10244;SDS011;5167;52.164;10.530;2023-06-14T03:33:12;3.17;;;1.80;;
10244;SDS011;5167;52.164;10.530;2023-06-14T03:35:37;1.70;;;1.60;;
10244;SDS011;5167;52.164;10.530;2023-06-14T03:38:03;6.03;;;1.92;;
10244;SDS011;5167;52.164;10.530;2023-06-14T03:40:28;2.13;;;1.65;;
10244;SDS011;5167;52.164;10.530;2023-06-14T03:42:54;2.00;;;1.80;;
10244;SDS011;5167;52.164;10.530;2023-06-14T03:45:20;7.50;;;2.38;;
10244;SDS011;5167;52.164;10.530;2023-06-14T03:47:46;2.15;;;1.80;;
10244;SDS011;5167;52.164;10.530;2023-06-14T03:50:12;2.85;;;1.88;;
10244;SDS011;5167;52.164;10.530;2023-06-14T03:52:38;3.25;;;1.80;;
10244;SDS011;5167;52.164;10.530;2023-06-14T03:55:05;2.90;;;1.85;;
10244;SDS011;5167;52.164;10.530;2023-06-14T03:57:31;2.15;;;2.05;;
10244;SDS011;5167;52.164;10.530;2023-06-14T03:59:56;2.47;;;1.63;;
10244;SDS011;5167;52.164;10.530;2023-06-14T04:02:22;5.82;;;2.10;;
10244;SDS011;5167;52.164;10.530;2023-06-14T04:04:48;1.98;;;1.88;;
10244;SDS011;5167;52.164;10.530;2023-06-14T04:07:14;4.82;;;1.83;;
10244;SDS011;5167;52.164;10.530;2023-06-14T04:09:44;4.47;;;1.85;;
10244;SDS011;5167;52.164;10.530;2023-06-14T04:12:10;3.63;;;2.03;;
10244;SDS011;5167;52.164;10.530;2023-06-14T04:14:39;5.65;;;1.88;;
10244;SDS011;5167;52.164;10.530;2023-06-14T04:17:05;2.03;;;1.90;;
10244;SDS011;5167;52.164;10.530;2023-06-14T04:19:31;3.55;;;2.28;;
10244;SDS011;5167;52.164;10.530;2023-06-14T04:21:57;1.92;;;1.73;;
10244;SDS011;5167;52.164;10.530;2023-06-14T04:24:26;2.72;;;1.67;;
10244;SDS011;5167;52.164;10.530;2023-06-14T04:26:57;2.45;;;1.90;;
10244;SDS011;5167;52.164;10.530;2023-06-14T04:29:24;2.20;;;2.00;;
10244;SDS011;5167;52.164;10.530;2023-06-14T04:31:53;2.25;;;2.05;;
10244;SDS011;5167;52.164;10.530;2023-06-14T04:34:19;3.17;;;1.98;;
10244;SDS011;5167;52.164;10.530;2023-06-14T04:36:46;4.68;;;1.77;;
10244;SDS011;5167;52.164;10.530;2023-06-14T04:39:21;2.13;;;1.50;;
10244;SDS011;5167;52.164;10.530;2023-06-14T04:41:47;2.42;;;2.05;;
10244;SDS011;5167;52.164;10.530;2023-06-14T04:44:18;2.13;;;1.75;;
10244;SDS011;5167;52.164;10.530;2023-06-14T04:46:45;2.97;;;2.05;;
10244;SDS011;5167;52.164;10.530;2023-06-14T04:49:14;2.40;;;1.90;;
10244;SDS011;5167;52.164;10.530;2023-06-14T04:51:41;2.00;;;1.80;;
10244;SDS011;5167;52.164;10.530;2023-06-14T04:54:07;1.63;;;1.52;;
10244;SDS011;5167;52.164;10.530;2023-06-14T04:56:38;4.88;;;2.22;;
10244;SDS011;5167;52.164;10.530;2023-06-14T04:59:04;2.72;;;1.70;;
10244;SDS011;5167;52.164;10.530;2023-06-14T05:01:30;4.05;;;2.00;;
10244;SDS011;5167;52.164;10.530;2023-06-14T05:03:56;4.18;;;2.08;;
10244;SDS011;5167;52.164;10.530;2023-06-14T05:06:25;2.55;;;1.80;;
10244;SDS011;5167;52.164;10.530;2023-06-14T05:08:54;3.65;;;1.77;;
10244;SDS011;5167;52.164;10.530;2023-06-14T05:11:20;2.90;;;2.00;;
10244;SDS011;5167;52.164;10.530;2023-06-14T05:13:45;3.67;;;2.17;;
10244;SDS011;5167;52.164;10.530;2023-06-14T05:16:14;3.67;;;2.15;;
10244;SDS011;5167;52.164;10.530;2023-06-14T05:18:40;8.10;;;2.10;;
10244;SDS011;5167;52.164;10.530;2023-06-14T05:21:06;6.13;;;2.25;;
10244;SDS011;5167;52.164;10.530;2023-06-14T05:23:32;3.97;;;1.63;;
10244;SDS011;5167;52.164;10.530;2023-06-14T05:25:57;3.85;;;2.20;;
10244;SDS011;5167;52.164;10.530;2023-06-14T05:28:23;4.78;;;2.30;;
10244;SDS011;5167;52.164;10.530;2023-06-14T05:30:49;4.45;;;2.55;;
10244;SDS011;5167;52.164;10.530;2023-06-14T05:33:16;5.05;;;2.30;;
10244;SDS011;5167;52.164;10.530;2023-06-14T05:35:42;3.25;;;2.60;;
10244;SDS011;5167;52.164;10.530;2023-06-14T05:38:07;7.85;;;3.03;;
10244;SDS011;5167;52.164;10.530;2023-06-14T05:40:33;7.13;;;2.15;;
10244;SDS011;5167;52.164;10.530;2023-06-14T05:42:59;2.80;;;2.17;;
10244;SDS011;5167;52.164;10.530;2023-06-14T05:45:24;3.08;;;2.20;;
10244;SDS011;5167;52.164;10.530;2023-06-14T05:47:50;3.10;;;2.33;;
10244;SDS011;5167;52.164;10.530;2023-06-14T05:50:16;3.05;;;2.63;;
10244;SDS011;5167;52.164;10.530;2023-06-14T05:52:41;3.42;;;2.38;;
10244;SDS011;5167;52.164;10.530;2023-06-14T05:55:07;5.90;;;2.40;;
10244;SDS011;5167;52.164;10.530;2023-06-14T05:57:33;3.38;;;2.10;;
10244;SDS011;5167;52.164;10.530;2023-06-14T05:59:59;2.60;;;2.40;;
10244;SDS011;5167;52.164;10.530;2023-06-14T06:02:24;4.65;;;2.45;;
10244;SDS011;5167;52.164;10.530;2023-06-14T06:04:50;3.10;;;2.30;;
10244;SDS011;5167;52.164;10.530;2023-06-14T06:07:16;2.42;;;2.00;;
10244;SDS011;5167;52.164;10.530;2023-06-14T06:09:41;3.10;;;2.30;;
10244;SDS011;5167;52.164;10.530;2023-06-14T06:12:07;3.00;;;2.40;;
10244;SDS011;5167;52.164;10.530;2023-06-14T06:14:33;5.47;;;2.30;;
10244;SDS011;5167;52.164;10.530;2023-06-14T06:16:58;3.00;;;2.70;;
10244;SDS011;5167;52.164;10.530;2023-06-14T06:19:24;2.90;;;2.08;;
10244;SDS011;5167;52.164;10.530;2023-06-14T06:21:50;2.15;;;2.03;;
10244;SDS011;5167;52.164;10.530;2023-06-14T06:24:16;2.60;;;2.20;;
10244;SDS011;5167;52.164;10.530;2023-06-14T06:26:41;3.33;;;2.47;;
10244;SDS011;5167;52.164;10.530;2023-06-14T06:29:07;4.03;;;2.33;;
10244;SDS011;5167;52.164;10.530;2023-06-14T06:31:32;3.05;;;2.10;;
10244;SDS011;5167;52.164;10.530;2023-06-14T06:33:58;5.60;;;1.88;;
10244;SDS011;5167;52.164;10.530;2023-06-14T06:36:24;2.20;;;2.10;;
10244;SDS011;5167;52.164;10.530;2023-06-14T06:38:50;2.92;;;2.35;;
10244;SDS011;5167;52.164;10.530;2023-06-14T06:41:15;3.45;;;1.98;;
10244;SDS011;5167;52.164;10.530;2023-06-14T06:43:41;2.55;;;1.77;;
10244;SDS011;5167;52.164;10.530;2023-06-14T06:46:06;2.92;;;2.10;;
10244;SDS011;5167;52.164;10.530;2023-06-14T06:48:32;2.22;;;2.03;;
10244;SDS011;5167;52.164;10.530;2023-06-14T06:50:58;3.15;;;2.17;;
10244;SDS011;5167;52.164;10.530;2023-06-14T06:53:23;2.03;;;1.75;;
10244;SDS011;5167;52.164;10.530;2023-06-14T06:55:49;2.70;;;1.65;;
10244;SDS011;5167;52.164;10.530;2023-06-14T06:58:15;3.17;;;2.00;;
10244;SDS011;5167;52.164;10.530;2023-06-14T07:00:40;2.95;;;2.17;;
10244;SDS011;5167;52.164;10.530;2023-06-14T07:03:06;3.90;;;1.80;;
10244;SDS011;5167;52.164;10.530;2023-06-14T07:05:32;2.40;;;1.83;;
10244;SDS011;5167;52.164;10.530;2023-06-14T07:07:57;4.28;;;2.10;;
10244;SDS011;5167;52.164;10.530;2023-06-14T07:10:23;1.90;;;1.58;;
10244;SDS011;5167;52.164;10.530;2023-06-14T07:12:49;1.88;;;1.67;;
10244;SDS011;5167;52.164;10.530;2023-06-14T07:15:17;1.92;;;1.77;;
10244;SDS011;5167;52.164;10.530;2023-06-14T07:17:46;1.98;;;1.50;;
10244;SDS011;5167;52.164;10.530;2023-06-14T07:20:13;4.35;;;1.58;;
10244;SDS011;5167;52.164;10.530;2023-06-14T07:22:42;1.80;;;1.70;;
10244;SDS011;5167;52.164;10.530;2023-06-14T07:25:11;4.43;;;1.65;;
10244;SDS011;5167;52.164;10.530;2023-06-14T07:27:41;2.15;;;1.30;;
10244;SDS011;5167;52.164;10.530;2023-06-14T07:30:07;1.60;;;1.40;;
10244;SDS011;5167;52.164;10.530;2023-06-14T07:32:33;2.55;;;1.63;;
10244;SDS011;5167;52.164;10.530;2023-06-14T07:35:02;1.58;;;1.48;;
10244;SDS011;5167;52.164;10.530;2023-06-14T07:37:28;3.17;;;1.50;;
10244;SDS011;5167;52.164;10.530;2023-06-14T07:39:54;1.77;;;1.65;;
10244;SDS011;5167;52.164;10.530;2023-06-14T07:42:22;2.42;;;1.63;;
10244;SDS011;5167;52.164;10.530;2023-06-14T07:44:48;2.10;;;1.70;;
10244;SDS011;5167;52.164;10.530;2023-06-14T07:47:15;2.03;;;1.80;;
10244;SDS011;5167;52.164;10.530;2023-06-14T07:49:41;2.53;;;1.90;;
10244;SDS011;5167;52.164;10.530;2023-06-14T07:52:06;3.72;;;2.55;;
10244;SDS011;5167;52.164;10.530;2023-06-14T07:54:32;3.83;;;1.85;;
10244;SDS011;5167;52.164;10.530;2023-06-14T07:56:58;1.63;;;1.50;;
10244;SDS011;5167;52.164;10.530;2023-06-14T07:59:25;2.28;;;1.30;;
10244;SDS011;5167;52.164;10.530;2023-06-14T08:01:51;1.92;;;1.35;;
10244;SDS011;5167;52.164;10.530;2023-06-14T08:04:17;2.13;;;1.20;;
10244;SDS011;5167;52.164;10.530;2023-06-14T08:06:42;5.07;;;1.48;;
10244;SDS011;5167;52.164;10.530;2023-06-14T08:09:10;1.95;;;1.75;;
10244;SDS011;5167;52.164;10.530;2023-06-14T08:11:36;2.13;;;1.33;;
10244;SDS011;5167;52.164;10.530;2023-06-14T08:14:02;1.45;;;1.17;;
10244;SDS011;5167;52.164;10.530;2023-06-14T08:16:27;1.60;;;1.50;;
10244;SDS011;5167;52.164;10.530;2023-06-14T08:18:55;1.70;;;1.60;;
10244;SDS011;5167;52.164;10.530;2023-06-14T08:21:21;2.45;;;1.48;;
10244;SDS011;5167;52.164;10.530;2023-06-14T08:23:46;2.95;;;1.38;;
10244;SDS011;5167;52.164;10.530;2023-06-14T08:26:12;1.45;;;1.17;;
10244;SDS011;5167;52.164;10.530;2023-06-14T08:28:38;3.97;;;1.65;;
10244;SDS011;5167;52.164;10.530;2023-06-14T08:31:04;4.45;;;1.95;;
10244;SDS011;5167;52.164;10.530;2023-06-14T08:33:29;1.58;;;1.42;;
10244;SDS011;5167;52.164;10.530;2023-06-14T08:35:58;1.35;;;1.25;;
10244;SDS011;5167;52.164;10.530;2023-06-14T08:38:24;2.03;;;1.42;;
10244;SDS011;5167;52.164;10.530;2023-06-14T08:40:50;1.85;;;1.70;;
10244;SDS011;5167;52.164;10.530;2023-06-14T08:43:17;1.98;;;1.75;;
10244;SDS011;5167;52.164;10.530;2023-06-14T08:45:43;3.33;;;1.48;;
10244;SDS011;5167;52.164;10.530;2023-06-14T08:48:13;5.07;;;1.42;;
10244;SDS011;5167;52.164;10.530;2023-06-14T08:50:42;2.95;;;1.55;;
10244;SDS011;5167;52.164;10.530;2023-06-14T08:53:11;2.17;;;1.52;;
10244;SDS011;5167;52.164;10.530;2023-06-14T08:55:44;1.17;;;1.17;;
10244;SDS011;5167;52.164;10.530;2023-06-14T08:58:10;3.13;;;1.60;;
10244;SDS011;5167;52.164;10.530;2023-06-14T09:00:40;1.58;;;1.48;;
10244;SDS011;5167;52.164;10.530;2023-06-14T09:03:07;4.90;;;1.70;;
10244;SDS011;5167;52.164;10.530;2023-06-14T09:05:38;1.30;;;1.20;;
10244;SDS011;5167;52.164;10.530;2023-06-14T09:08:04;1.55;;;1.42;;
10244;SDS011;5167;52.164;10.530;2023-06-14T09:10:30;2.33;;;1.55;;
10244;SDS011;5167;52.164;10.530;2023-06-14T09:13:01;1.95;;;1.52;;
10244;SDS011;5167;52.164;10.530;2023-06-14T09:15:28;1.40;;;1.30;;
10244;SDS011;5167;52.164;10.530;2023-06-14T09:17:54;1.10;;;1.10;;
10244;SDS011;5167;52.164;10.530;2023-06-14T09:20:23;1.52;;;1.23;;
10244;SDS011;5167;52.164;10.530;2023-06-14T09:22:50;3.08;;;1.30;;
10244;SDS011;5167;52.164;10.530;2023-06-14T09:25:15;2.67;;;1.50;;
10244;SDS011;5167;52.164;10.530;2023-06-14T09:27:42;5.55;;;1.33;;
10244;SDS011;5167;52.164;10.530;2023-06-14T09:30:10;4.07;;;1.38;;
10244;SDS011;5167;52.164;10.530;2023-06-14T09:32:37;1.63;;;1.40;;
10244;SDS011;5167;52.164;10.530;2023-06-14T09:35:05;2.22;;;1.27;;
10244;SDS011;5167;52.164;10.530;2023-06-14T09:37:32;1.40;;;1.30;;
10244;SDS011;5167;52.164;10.530;2023-06-14T09:39:58;2.63;;;1.38;;
10244;SDS011;5167;52.164;10.530;2023-06-14T09:42:24;1.50;;;1.40;;
10244;SDS011;5167;52.164;10.530;2023-06-14T09:44:54;4.13;;;1.88;;
10244;SDS011;5167;52.164;10.530;2023-06-14T09:47:21;1.58;;;1.48;;
10244;SDS011;5167;52.164;10.530;2023-06-14T09:49:48;2.65;;;1.42;;
10244;SDS011;5167;52.164;10.530;2023-06-14T09:52:19;3.80;;;1.40;;
10244;SDS011;5167;52.164;10.530;2023-06-14T09:54:45;1.70;;;1.60;;
10244;SDS011;5167;52.164;10.530;2023-06-14T09:57:16;3.30;;;1.95;;
10244;SDS011;5167;52.164;10.530;2023-06-14T09:59:46;5.25;;;1.77;;
10244;SDS011;5167;52.164;10.530;2023-06-14T10:02:22;2.35;;;1.73;;
10244;SDS011;5167;52.164;10.530;2023-06-14T10:04:58;2.00;;;1.80;;
10244;SDS011;5167;52.164;10.530;2023-06-14T10:07:44;2.53;;;1.77;;
10244;SDS011;5167;52.164;10.530;2023-06-14T10:10:17;5.60;;;1.70;;
10244;SDS011;5167;52.164;10.530;2023-06-14T10:12:43;2.65;;;2.10;;
10244;SDS011;5167;52.164;10.530;2023-06-14T10:15:09;2.67;;;2.17;;
10244;SDS011;5167;52.164;10.530;2023-06-14T10:17:59;2.58;;;2.00;;
10244;SDS011;5167;52.164;10.530;2023-06-14T10:20:33;3.40;;;2.67;;
10244;SDS011;5167;52.164;10.530;2023-06-14T10:23:07;4.35;;;1.95;;
10244;SDS011;5167;52.164;10.530;2023-06-14T10:25:42;2.13;;;1.90;;
10244;SDS011;5167;52.164;10.530;2023-06-14T10:28:18;2.10;;;1.90;;
10244;SDS011;5167;52.164;10.530;2023-06-14T10:33:33;2.35;;;2.15;;
10244;SDS011;5167;52.164;10.530;2023-06-14T10:36:07;6.88;;;2.42;;
10244;SDS011;5167;52.164;10.530;2023-06-14T10:38:35;5.60;;;2.10;;
10244;SDS011;5167;52.164;10.530;2023-06-14T10:41:02;3.30;;;1.90;;
10244;SDS011;5167;52.164;10.530;2023-06-14T10:43:30;5.10;;;2.42;;
10244;SDS011;5167;52.164;10.530;2023-06-14T10:46:15;2.60;;;2.40;;
10244;SDS011;5167;52.164;10.530;2023-06-14T10:48:47;4.43;;;2.30;;
10244;SDS011;5167;52.164;10.530;2023-06-14T10:51:19;5.03;;;2.35;;
10244;SDS011;5167;52.164;10.530;2023-06-14T10:53:46;3.17;;;2.00;;
10244;SDS011;5167;52.164;10.530;2023-06-14T10:56:34;3.20;;;2.17;;
10244;SDS011;5167;52.164;10.530;2023-06-14T10:58:59;4.78;;;1.92;;
10244;SDS011;5167;52.164;10.530;2023-06-14T11:07:39;3.78;;;2.28;;
10244;SDS011;5167;52.164;10.530;2023-06-14T11:13:01;2.60;;;2.40;;
10244;SDS011;5167;52.164;10.530;2023-06-14T11:15:31;3.33;;;2.92;;
10244;SDS011;5167;52.164;10.530;2023-06-14T11:18:00;4.65;;;2.30;;
10244;SDS011;5167;52.164;10.530;2023-06-14T11:20:30;3.15;;;2.15;;
10244;SDS011;5167;52.164;10.530;2023-06-14T11:22:56;3.03;;;2.38;;
10244;SDS011;5167;52.164;10.530;2023-06-14T11:25:22;3.10;;;2.08;;
10244;SDS011;5167;52.164;10.530;2023-06-14T11:27:49;2.92;;;2.10;;
10244;SDS011;5167;52.164;10.530;2023-06-14T11:30:16;5.05;;;2.30;;
10244;SDS011;5167;52.164;10.530;2023-06-14T11:32:42;4.43;;;2.47;;
10244;SDS011;5167;52.164;10.530;2023-06-14T11:35:12;4.28;;;2.20;;
10244;SDS011;5167;52.164;10.530;2023-06-14T11:37:39;4.45;;;2.72;;
10244;SDS011;5167;52.164;10.530;2023-06-14T11:40:07;3.47;;;2.55;;
10244;SDS011;5167;52.164;10.530;2023-06-14T11:42:35;4.43;;;2.00;;
10244;SDS011;5167;52.164;10.530;2023-06-14T11:45:02;3.22;;;2.22;;
10244;SDS011;5167;52.164;10.530;2023-06-14T11:47:33;2.78;;;2.30;;
10244;SDS011;5167;52.164;10.530;2023-06-14T11:50:00;2.70;;;2.30;;
10244;SDS011;5167;52.164;10.530;2023-06-14T11:52:25;6.53;;;2.47;;
10244;SDS011;5167;52.164;10.530;2023-06-14T11:54:52;2.58;;;2.05;;
10244;SDS011;5167;52.164;10.530;2023-06-14T11:57:19;9.77;;;2.60;;
10244;SDS011;5167;52.164;10.530;2023-06-14T11:59:45;4.70;;;2.38;;
10244;SDS011;5167;52.164;10.530;2023-06-14T12:02:18;4.03;;;2.10;;
10244;SDS011;5167;52.164;10.530;2023-06-14T12:04:46;3.50;;;2.38;;
10244;SDS011;5167;52.164;10.530;2023-06-14T12:07:12;2.97;;;2.55;;
10244;SDS011;5167;52.164;10.530;2023-06-14T12:12:17;6.05;;;2.47;;
10244;SDS011;5167;52.164;10.530;2023-06-14T12:14:42;6.40;;;2.63;;
10244;SDS011;5167;52.164;10.530;2023-06-14T12:17:08;4.18;;;2.70;;
10244;SDS011;5167;52.164;10.530;2023-06-14T12:19:41;7.00;;;2.50;;
10244;SDS011;5167;52.164;10.530;2023-06-14T12:22:10;6.63;;;2.65;;
10244;SDS011;5167;52.164;10.530;2023-06-14T12:24:37;6.13;;;2.83;;
10244;SDS011;5167;52.164;10.530;2023-06-14T12:27:03;5.97;;;2.60;;
10244;SDS011;5167;52.164;10.530;2023-06-14T12:29:29;8.63;;;2.65;;
10244;SDS011;5167;52.164;10.530;2023-06-14T12:31:56;3.25;;;2.50;;
10244;SDS011;5167;52.164;10.530;2023-06-14T12:34:28;2.83;;;2.45;;
10244;SDS011;5167;52.164;10.530;2023-06-14T12:36:54;4.93;;;2.47;;
10244;SDS011;5167;52.164;10.530;2023-06-14T12:39:19;2.85;;;2.30;;
10244;SDS011;5167;52.164;10.530;2023-06-14T12:41:49;5.07;;;2.63;;
10244;SDS011;5167;52.164;10.530;2023-06-14T12:44:15;6.75;;;2.47;;
10244;SDS011;5167;52.164;10.530;2023-06-14T12:46:41;2.78;;;2.13;;
10244;SDS011;5167;52.164;10.530;2023-06-14T12:49:08;9.65;;;2.80;;
10244;SDS011;5167;52.164;10.530;2023-06-14T12:51:35;3.45;;;2.33;;
10244;SDS011;5167;52.164;10.530;2023-06-14T12:54:01;4.47;;;2.20;;
10244;SDS011;5167;52.164;10.530;2023-06-14T12:56:27;3.53;;;2.08;;
10244;SDS011;5167;52.164;10.530;2023-06-14T12:58:53;3.78;;;2.70;;
10244;SDS011;5167;52.164;10.530;2023-06-14T13:01:18;5.13;;;2.45;;
10244;SDS011;5167;52.164;10.530;2023-06-14T13:03:45;5.80;;;2.20;;
10244;SDS011;5167;52.164;10.530;2023-06-14T13:06:12;2.90;;;2.45;;
10244;SDS011;5167;52.164;10.530;2023-06-14T13:08:37;3.42;;;2.40;;
10244;SDS011;5167;52.164;10.530;2023-06-14T13:11:03;4.68;;;2.58;;
10244;SDS011;5167;52.164;10.530;2023-06-14T13:13:28;3.80;;;2.55;;
10244;SDS011;5167;52.164;10.530;2023-06-14T13:15:54;4.38;;;2.50;;
10244;SDS011;5167;52.164;10.530;2023-06-14T13:18:20;7.15;;;2.58;;
10244;SDS011;5167;52.164;10.530;2023-06-14T13:20:46;7.72;;;2.28;;
10244;SDS011;5167;52.164;10.530;2023-06-14T13:23:12;2.95;;;2.45;;
10244;SDS011;5167;52.164;10.530;2023-06-14T13:25:41;3.22;;;2.78;;
10244;SDS011;5167;52.164;10.530;2023-06-14T13:28:06;7.47;;;2.55;;
10244;SDS011;5167;52.164;10.530;2023-06-14T13:30:32;8.10;;;2.55;;
10244;SDS011;5167;52.164;10.530;2023-06-14T13:32:59;6.80;;;2.63;;
10244;SDS011;5167;52.164;10.530;2023-06-14T13:35:28;4.97;;;2.42;;
10244;SDS011;5167;52.164;10.530;2023-06-14T13:37:54;2.60;;;2.38;;
10244;SDS011;5167;52.164;10.530;2023-06-14T13:40:20;8.98;;;2.67;;
10244;SDS011;5167;52.164;10.530;2023-06-14T13:42:46;4.03;;;2.58;;
10244;SDS011;5167;52.164;10.530;2023-06-14T13:45:12;3.92;;;2.40;;
10244;SDS011;5167;52.164;10.530;2023-06-14T13:47:38;5.15;;;2.30;;
10244;SDS011;5167;52.164;10.530;2023-06-14T13:50:04;6.47;;;2.38;;
10244;SDS011;5167;52.164;10.530;2023-06-14T13:52:30;2.78;;;2.45;;
10244;SDS011;5167;52.164;10.530;2023-06-14T13:54:56;6.72;;;2.50;;
10244;SDS011;5167;52.164;10.530;2023-06-14T13:57:22;4.32;;;2.25;;
10244;SDS011;5167;52.164;10.530;2023-06-14T13:59:47;5.80;;;2.63;;
10244;SDS011;5167;52.164;10.530;2023-06-14T14:02:13;3.90;;;2.50;;
10244;SDS011;5167;52.164;10.530;2023-06-14T14:04:39;5.93;;;2.80;;
10244;SDS011;5167;52.164;10.530;2023-06-14T14:07:05;5.05;;;2.80;;
10244;SDS011;5167;52.164;10.530;2023-06-14T14:09:34;4.13;;;2.40;;
10244;SDS011;5167;52.164;10.530;2023-06-14T14:12:00;5.80;;;2.58;;
10244;SDS011;5167;52.164;10.530;2023-06-14T14:14:27;2.78;;;2.20;;
10244;SDS011;5167;52.164;10.530;2023-06-14T14:16:53;5.15;;;2.83;;
10244;SDS011;5167;52.164;10.530;2023-06-14T14:19:22;4.63;;;2.55;;
10244;SDS011;5167;52.164;10.530;2023-06-14T14:21:48;4.80;;;2.42;;
10244;SDS011;5167;52.164;10.530;2023-06-14T14:24:14;3.88;;;2.38;;
10244;SDS011;5167;52.164;10.530;2023-06-14T14:26:41;3.10;;;2.50;;
10244;SDS011;5167;52.164;10.530;2023-06-14T14:29:06;7.07;;;2.33;;
10244;SDS011;5167;52.164;10.530;2023-06-14T14:31:33;7.43;;;3.35;;
10244;SDS011;5167;52.164;10.530;2023-06-14T14:33:59;3.15;;;2.30;;
10244;SDS011;5167;52.164;10.530;2023-06-14T14:36:24;3.63;;;2.80;;
10244;SDS011;5167;52.164;10.530;2023-06-14T14:38:50;5.90;;;2.60;;
10244;SDS011;5167;52.164;10.530;2023-06-14T14:41:16;4.68;;;2.40;;
10244;SDS011;5167;52.164;10.530;2023-06-14T14:43:42;7.82;;;2.55;;
10244;SDS011;5167;52.164;10.530;2023-06-14T14:46:08;5.88;;;2.50;;
10244;SDS011;5167;52.164;10.530;2023-06-14T14:48:34;6.03;;;2.80;;
10244;SDS011;5167;52.164;10.530;2023-06-14T14:51:00;4.43;;;2.88;;
10244;SDS011;5167;52.164;10.530;2023-06-14T14:53:25;5.75;;;2.50;;
10244;SDS011;5167;52.164;10.530;2023-06-14T14:55:51;2.45;;;2.22;;
10244;SDS011;5167;52.164;10.530;2023-06-14T14:58:16;3.35;;;2.90;;
10244;SDS011;5167;52.164;10.530;2023-06-14T15:00:43;3.17;;;2.53;;
10244;SDS011;5167;52.164;10.530;2023-06-14T15:03:10;6.65;;;3.22;;
10244;SDS011;5167;52.164;10.530;2023-06-14T15:05:35;4.68;;;2.75;;
10244;SDS011;5167;52.164;10.530;2023-06-14T15:08:02;4.22;;;2.58;;
10244;SDS011;5167;52.164;10.530;2023-06-14T15:10:28;4.72;;;2.65;;